Main page
METAR-TAF:

METAR-TAF

Airports :

Den Helder, Netherlands

De Kooy Airfield

latitude: 52-55N, longitude: 004-47E, elevation: 0 m

Current weather observation

The report was made 22 minutes ago, at 20:55 UTC
Wind 3 kt from variable directions
Temperature 19°C
Humidity 73%
Pressure 1015 hPa
Visibility 10 km or more
no clouds below 1500 m and no cumulonimbus

METAR: EHKD 222055Z AUTO 09004KT 9999 OVC160 19/14 Q1015 BLU VRB03KT CAVOK

Time: 23:17 (21:17 UTC)

Forecast

The report was made 5 hours and 11 minutes ago, at 16:06 UTC
Forecast valid from 22 at 17 UTC to 23 at 05 UTC
Wind 4 kt from variable directions
Visibility 10 km or more
no clouds below 1500 m and no cumulonimbus
Becoming
from 22 at 19 UTC to 22 at 21 UTC
Wind 7 kt from the East/Northeast
Becoming
from 22 at 21 UTC to 23 at 01 UTC
Wind 8 kt from the South/Southeast

TAF: EHKD 221606Z 2217/2305 VRB04KT CAVOK BECMG 2219/2221 07007KT BECMG 2221/2301 16008KT

Weather observations and forecasts of more than 4000 airports (METAR and TAF reports).

The available stations are represented by yellow and red dots on the map.

Hover mouse over dot to see the name of the station.

Then click to see weather observations and forecasts.

To change the map : click on the green buttons with a black cross to zoom in, on the green button with a dash to zoom out, or on the green arrows for adjacent maps.


METAR-TAF: